createdAt,value
2023-04-08T00:01:24.928Z,27.77
2023-04-08T00:03:51.355Z,27.88
2023-04-08T00:06:17.739Z,28.75
2023-04-08T00:08:44.596Z,27.90
2023-04-08T00:11:10.908Z,28.38
2023-04-08T00:13:37.427Z,28.00
2023-04-08T00:16:03.745Z,28.48
2023-04-08T00:18:30.155Z,30.02
2023-04-08T00:20:57.314Z,28.63
2023-04-08T00:23:23.748Z,30.88
2023-04-08T00:25:51.043Z,30.08
2023-04-08T00:28:17.378Z,29.23
2023-04-08T00:30:43.724Z,30.70
2023-04-08T00:33:10.162Z,29.77
2023-04-08T00:35:38.442Z,30.15
2023-04-08T00:38:07.879Z,29.92
2023-04-08T00:40:34.310Z,29.85
2023-04-08T00:43:01.302Z,28.63
2023-04-08T00:45:27.702Z,28.92
2023-04-08T00:47:54.114Z,28.33
2023-04-08T00:50:20.673Z,29.52
2023-04-08T00:52:47.088Z,28.73
2023-04-08T00:55:13.464Z,27.13
2023-04-08T00:57:39.807Z,28.05
2023-04-08T01:00:07.832Z,28.48
2023-04-08T01:02:34.506Z,27.67
2023-04-08T01:05:01.053Z,27.60
2023-04-08T01:07:27.410Z,27.75
2023-04-08T01:09:54.024Z,27.65
2023-04-08T01:12:21.236Z,27.25
2023-04-08T01:14:47.603Z,26.88
2023-04-08T01:17:14.773Z,28.80
2023-04-08T01:19:44.754Z,27.35
2023-04-08T01:22:11.517Z,28.23
2023-04-08T01:24:37.913Z,28.13
2023-04-08T01:27:04.275Z,27.17
2023-04-08T01:29:30.953Z,26.52
2023-04-08T01:31:57.308Z,27.05
2023-04-08T01:34:26.542Z,26.90
2023-04-08T01:36:57.977Z,25.15
2023-04-08T01:39:24.884Z,24.98
2023-04-08T01:41:51.235Z,26.63
2023-04-08T01:44:17.725Z,24.92
2023-04-08T01:46:44.314Z,24.67
2023-04-08T01:49:10.871Z,24.63
2023-04-08T01:54:03.559Z,24.27
2023-04-08T01:56:30.003Z,25.27
2023-04-08T01:58:56.394Z,24.88
2023-04-08T02:01:22.850Z,24.52
2023-04-08T02:03:52.052Z,24.52
2023-04-08T02:06:18.568Z,24.00
2023-04-08T02:08:44.966Z,25.55
2023-04-08T02:11:11.351Z,24.73
2023-04-08T02:13:37.700Z,25.80
2023-04-08T02:16:04.165Z,23.77
2023-04-08T02:18:30.619Z,23.88
2023-04-08T02:20:57.031Z,23.30
2023-04-08T02:23:23.417Z,23.58
2023-04-08T02:25:49.781Z,22.70
2023-04-08T02:28:16.780Z,22.35
2023-04-08T02:30:43.225Z,23.23
2023-04-08T02:33:09.684Z,23.67
2023-04-08T02:35:36.271Z,23.67
2023-04-08T02:38:02.726Z,24.35
2023-04-08T02:40:29.674Z,26.38
2023-04-08T02:42:56.495Z,25.08
2023-04-08T02:45:24.126Z,25.00
2023-04-08T02:47:50.634Z,25.77
2023-04-08T02:50:17.008Z,26.48
2023-04-08T02:52:44.880Z,27.70
2023-04-08T02:55:11.610Z,28.05
2023-04-08T02:57:38.050Z,26.60
2023-04-08T03:00:04.401Z,27.35
2023-04-08T03:02:30.860Z,27.38
2023-04-08T03:04:57.406Z,28.40
2023-04-08T03:07:23.821Z,28.02
2023-04-08T03:09:50.324Z,26.90
2023-04-08T03:12:16.735Z,28.02
2023-04-08T03:14:43.097Z,27.90
2023-04-08T03:17:09.478Z,27.98
2023-04-08T03:19:35.855Z,27.17
2023-04-08T03:22:02.305Z,27.40
2023-04-08T03:24:28.684Z,27.08
2023-04-08T03:26:55.229Z,27.00
2023-04-08T03:29:21.588Z,26.73
2023-04-08T03:31:48.024Z,26.98
2023-04-08T03:34:14.591Z,27.17
2023-04-08T03:36:41.178Z,25.85
2023-04-08T03:39:07.505Z,26.42
2023-04-08T03:41:33.895Z,26.52
2023-04-08T03:44:00.285Z,26.85
2023-04-08T03:46:26.730Z,27.73
2023-04-08T03:48:53.180Z,27.73
2023-04-08T03:51:19.643Z,27.55
2023-04-08T03:53:46.103Z,29.35
2023-04-08T03:56:12.423Z,27.58
2023-04-08T03:58:38.762Z,28.75
2023-04-08T04:01:05.273Z,28.98
2023-04-08T04:03:31.945Z,29.27
2023-04-08T04:05:58.541Z,30.33
2023-04-08T04:08:24.894Z,29.65
2023-04-08T04:10:51.610Z,29.42
2023-04-08T04:13:19.508Z,27.15
2023-04-08T04:15:45.935Z,25.00
2023-04-08T04:18:12.350Z,23.80
2023-04-08T04:20:38.774Z,22.90
2023-04-08T04:23:05.120Z,22.88
2023-04-08T04:25:31.503Z,23.38
2023-04-08T04:27:57.887Z,23.38
2023-04-08T04:30:24.283Z,22.40
2023-04-08T04:32:50.671Z,23.17
2023-04-08T04:35:17.175Z,22.67
2023-04-08T04:37:43.590Z,22.48
2023-04-08T04:40:10.049Z,22.48
2023-04-08T04:42:36.474Z,21.75
2023-04-08T04:45:02.879Z,22.80
2023-04-08T04:47:29.285Z,22.85
2023-04-08T04:49:55.784Z,23.17
2023-04-08T04:52:22.134Z,24.08
2023-04-08T04:54:48.501Z,22.92
2023-04-08T04:57:15.010Z,23.60
2023-04-08T04:59:41.388Z,24.02
2023-04-08T05:02:07.888Z,24.85
2023-04-08T05:04:34.477Z,23.58
2023-04-08T05:07:01.107Z,22.88
2023-04-08T05:09:27.461Z,23.02
2023-04-08T05:11:53.843Z,23.55
2023-04-08T05:14:20.244Z,24.40
2023-04-08T05:16:46.817Z,25.25
2023-04-08T05:19:13.170Z,23.30
2023-04-08T05:21:39.551Z,24.20
2023-04-08T05:24:06.098Z,29.08
2023-04-08T05:26:32.987Z,26.27
2023-04-08T05:28:59.447Z,25.50
2023-04-08T05:31:26.037Z,27.10
2023-04-08T05:33:52.429Z,26.17
2023-04-08T05:36:18.797Z,27.40
2023-04-08T05:38:45.505Z,27.58
2023-04-08T05:41:11.873Z,28.75
2023-04-08T05:43:38.258Z,27.00
2023-04-08T05:46:04.550Z,27.42
2023-04-08T05:48:31.043Z,28.13
2023-04-08T05:50:57.456Z,27.38
2023-04-08T05:53:25.006Z,28.33
2023-04-08T05:55:51.345Z,28.13
2023-04-08T05:58:17.706Z,25.85
2023-04-08T06:00:44.032Z,27.02
2023-04-08T06:03:10.862Z,27.88
2023-04-08T06:05:37.570Z,28.50
2023-04-08T06:08:04.006Z,29.02
2023-04-08T06:10:30.393Z,28.25
2023-04-08T06:12:56.803Z,29.23
2023-04-08T06:15:23.185Z,31.42
2023-04-08T06:17:49.550Z,32.40
2023-04-08T06:20:15.946Z,33.38
2023-04-08T06:22:42.329Z,34.30
2023-04-08T06:25:08.718Z,36.83
2023-04-08T06:27:35.119Z,36.03
2023-04-08T06:30:01.729Z,37.72
2023-04-08T06:32:28.128Z,38.45
2023-04-08T06:34:54.542Z,39.92
2023-04-08T06:37:20.927Z,42.40
2023-04-08T06:39:47.261Z,41.47
2023-04-08T06:42:13.650Z,43.00
2023-04-08T06:45:07.802Z,43.13
2023-04-08T06:47:34.597Z,43.45
2023-04-08T06:50:01.132Z,43.38
2023-04-08T06:52:27.528Z,43.72
2023-04-08T06:54:53.882Z,43.50
2023-04-08T06:57:20.322Z,45.58
2023-04-08T06:59:46.876Z,47.13
2023-04-08T07:02:13.283Z,45.47
2023-04-08T07:04:39.664Z,46.20
2023-04-08T07:07:06.038Z,44.35
2023-04-08T07:09:32.729Z,44.25
2023-04-08T07:11:59.832Z,43.60
2023-04-08T07:14:26.271Z,40.67
2023-04-08T07:16:52.762Z,40.70
2023-04-08T07:19:19.136Z,39.65
2023-04-08T07:21:45.747Z,38.50
2023-04-08T07:24:12.102Z,40.08
2023-04-08T07:26:38.552Z,37.78
2023-04-08T07:29:04.933Z,40.00
2023-04-08T07:31:31.340Z,38.17
2023-04-08T07:33:57.843Z,38.65
2023-04-08T07:36:24.221Z,34.90
2023-04-08T07:38:50.778Z,34.75
2023-04-08T07:41:17.246Z,35.90
2023-04-08T07:43:43.635Z,36.35
2023-04-08T07:46:10.434Z,35.55
2023-04-08T07:48:36.859Z,34.65
2023-04-08T07:51:09.629Z,34.35
2023-04-08T07:53:36.965Z,32.63
2023-04-08T07:56:06.659Z,30.45
2023-04-08T07:58:33.310Z,32.33
2023-04-08T08:00:59.786Z,27.20
2023-04-08T08:03:26.439Z,29.92
2023-04-08T08:05:52.976Z,32.15
2023-04-08T08:08:19.374Z,32.65
2023-04-08T08:10:45.839Z,35.58
2023-04-08T08:13:15.093Z,38.17
2023-04-08T08:15:41.489Z,42.25
2023-04-08T08:18:07.986Z,40.65
2023-04-08T08:20:34.674Z,41.67
2023-04-08T08:23:01.296Z,45.03
2023-04-08T08:25:27.669Z,42.58
2023-04-08T08:27:55.382Z,42.58
2023-04-08T08:30:22.352Z,44.25
2023-04-08T08:32:49.784Z,42.28
2023-04-08T08:35:16.172Z,42.20
2023-04-08T08:37:42.804Z,44.92
2023-04-08T08:40:09.162Z,46.78
2023-04-08T08:42:35.531Z,50.78
2023-04-08T08:45:01.910Z,51.70
2023-04-08T08:47:28.341Z,50.63
2023-04-08T08:49:54.761Z,47.25
2023-04-08T08:52:21.579Z,48.03
2023-04-08T08:54:47.942Z,49.95
2023-04-08T08:57:14.286Z,49.75
2023-04-08T08:59:40.961Z,52.30
2023-04-08T09:02:07.400Z,51.40
2023-04-08T09:04:34.308Z,55.15
2023-04-08T09:07:01.203Z,53.70
2023-04-08T09:09:27.645Z,54.10
2023-04-08T09:11:54.044Z,54.53
2023-04-08T09:14:20.558Z,56.03
2023-04-08T09:16:47.295Z,52.47
2023-04-08T09:19:13.712Z,52.00
2023-04-08T09:21:41.346Z,54.50
2023-04-08T09:24:07.721Z,52.40
2023-04-08T09:26:34.187Z,52.90
2023-04-08T09:29:05.911Z,55.90
2023-04-08T09:31:36.211Z,54.92
2023-04-08T09:34:02.620Z,50.95
2023-04-08T09:36:29.005Z,52.00
2023-04-08T09:38:55.370Z,51.65
2023-04-08T09:41:23.489Z,50.20
2023-04-08T09:43:50.618Z,51.67
2023-04-08T09:46:18.393Z,52.58
2023-04-08T09:48:44.771Z,52.10
2023-04-08T09:51:11.156Z,52.45
2023-04-08T09:53:37.544Z,52.30
2023-04-08T09:56:03.930Z,51.10
2023-04-08T09:58:30.334Z,48.97
2023-04-08T10:00:56.766Z,48.90
2023-04-08T10:03:23.371Z,47.15
2023-04-08T10:05:49.941Z,44.08
2023-04-08T10:08:16.364Z,38.70
2023-04-08T10:10:42.837Z,36.10
2023-04-08T10:13:09.186Z,35.50
2023-04-08T10:15:36.717Z,35.58
2023-04-08T10:18:03.177Z,34.38
2023-04-08T10:20:29.622Z,31.65
2023-04-08T10:22:56.135Z,32.83
2023-04-08T10:25:23.781Z,33.88
2023-04-08T10:27:50.214Z,32.92
2023-04-08T10:30:16.587Z,33.20
2023-04-08T10:32:43.039Z,29.77
2023-04-08T10:35:09.625Z,24.05
2023-04-08T10:37:36.013Z,25.75
2023-04-08T10:40:02.354Z,25.45
2023-04-08T10:42:28.780Z,26.30
2023-04-08T10:44:55.150Z,20.25
2023-04-08T10:47:21.535Z,18.38
2023-04-08T10:49:49.656Z,17.88
2023-04-08T10:52:16.050Z,17.55
2023-04-08T10:54:42.429Z,15.52
2023-04-08T10:57:08.979Z,13.85
2023-04-08T10:59:36.897Z,12.82
2023-04-08T11:02:03.484Z,12.63
2023-04-08T11:04:30.014Z,12.77
2023-04-08T11:06:56.590Z,14.02
2023-04-08T11:09:23.032Z,12.40
2023-04-08T11:11:49.500Z,10.88
2023-04-08T11:14:17.337Z,11.30
2023-04-08T11:16:43.707Z,10.60
2023-04-08T11:19:10.033Z,10.45
2023-04-08T11:21:36.434Z,10.57
2023-04-08T11:24:02.849Z,10.20
2023-04-08T11:26:29.302Z,10.43
2023-04-08T11:28:56.145Z,10.32
2023-04-08T11:31:24.855Z,10.45
2023-04-08T11:33:52.702Z,10.32
2023-04-08T11:36:19.305Z,10.23
2023-04-08T11:38:47.811Z,8.95
2023-04-08T11:41:14.188Z,9.98
2023-04-08T11:43:43.672Z,10.15
2023-04-08T11:46:10.651Z,9.30
2023-04-08T11:48:38.543Z,10.07
2023-04-08T11:51:09.043Z,9.65
2023-04-08T11:53:36.729Z,9.85
2023-04-08T11:56:03.325Z,9.32
2023-04-08T11:58:29.705Z,8.88
2023-04-08T12:00:56.089Z,9.30
2023-04-08T12:03:22.780Z,9.88
2023-04-08T12:05:49.293Z,10.20
2023-04-08T12:08:16.115Z,10.35
2023-04-08T12:10:42.451Z,9.88
2023-04-08T12:13:08.796Z,9.20
2023-04-08T12:15:35.179Z,9.57
2023-04-08T12:18:01.597Z,10.18
2023-04-08T12:20:27.998Z,10.07
2023-04-08T12:22:54.373Z,10.75
2023-04-08T12:25:21.429Z,10.13
2023-04-08T12:27:47.985Z,9.20
2023-04-08T12:30:15.945Z,9.07
2023-04-08T12:32:47.417Z,9.02
2023-04-08T12:35:14.951Z,10.50
2023-04-08T12:37:41.373Z,9.38
2023-04-08T12:40:07.793Z,9.48
2023-04-08T12:42:34.952Z,10.10
2023-04-08T12:45:01.607Z,10.02
2023-04-08T12:47:28.024Z,10.38
2023-04-08T12:49:54.397Z,10.10
2023-04-08T12:52:20.778Z,9.75
2023-04-08T12:54:47.184Z,9.63
2023-04-08T12:57:13.544Z,10.95
2023-04-08T12:59:40.159Z,9.98
2023-04-08T13:02:07.005Z,10.02
2023-04-08T13:04:33.397Z,9.10
2023-04-08T13:07:00.945Z,8.60
2023-04-08T13:09:27.612Z,7.53
2023-04-08T13:11:53.998Z,7.75
2023-04-08T13:14:20.567Z,10.13
2023-04-08T13:16:47.884Z,6.70
2023-04-08T13:19:14.907Z,6.75
2023-04-08T13:21:41.529Z,6.80
2023-04-08T13:24:07.956Z,6.65
2023-04-08T13:26:34.362Z,7.45
2023-04-08T13:29:01.280Z,7.32
2023-04-08T13:31:27.964Z,7.20
2023-04-08T13:33:57.592Z,6.80
2023-04-08T13:36:24.658Z,7.18
2023-04-08T13:38:51.978Z,7.90
2023-04-08T13:41:18.823Z,8.00
2023-04-08T13:43:45.169Z,9.10
2023-04-08T13:46:11.894Z,9.60
2023-04-08T13:48:38.293Z,10.45
2023-04-08T13:51:05.457Z,9.57
2023-04-08T13:53:31.895Z,10.23
2023-04-08T13:55:59.181Z,9.00
2023-04-08T13:58:26.505Z,9.57
2023-04-08T14:00:56.523Z,9.23
2023-04-08T14:03:23.014Z,9.70
2023-04-08T14:05:50.946Z,9.00
2023-04-08T14:08:24.874Z,10.27
2023-04-08T14:10:51.764Z,11.52
2023-04-08T14:13:18.101Z,11.48
2023-04-08T14:15:44.406Z,14.57
2023-04-08T14:18:12.860Z,14.23
2023-04-08T14:20:39.267Z,20.90
2023-04-08T14:23:05.669Z,22.50
2023-04-08T14:25:32.516Z,14.07
2023-04-08T14:27:59.113Z,14.38
2023-04-08T14:30:25.748Z,15.23
2023-04-08T14:32:52.336Z,14.88
2023-04-08T14:35:18.696Z,14.52
2023-04-08T14:37:45.701Z,14.25
2023-04-08T14:40:12.373Z,15.00
2023-04-08T14:42:39.151Z,14.18
2023-04-08T14:45:06.007Z,14.25
2023-04-08T14:47:32.394Z,14.05
2023-04-08T14:49:58.757Z,14.20
2023-04-08T14:52:25.122Z,14.40
2023-04-08T14:54:52.461Z,14.07
2023-04-08T14:57:18.916Z,14.55
2023-04-08T14:59:45.461Z,14.80
2023-04-08T15:02:12.543Z,16.73
2023-04-08T15:04:39.059Z,16.35
2023-04-08T15:07:06.216Z,16.00
2023-04-08T15:09:32.642Z,16.02
2023-04-08T15:11:59.032Z,15.80
2023-04-08T15:14:25.914Z,16.67
2023-04-08T15:16:52.496Z,17.77
2023-04-08T15:19:20.177Z,19.33
2023-04-08T15:21:46.600Z,19.40
2023-04-08T15:24:13.033Z,18.67
2023-04-08T15:26:39.381Z,17.90
2023-04-08T15:29:06.054Z,19.42
2023-04-08T15:31:32.700Z,16.98
2023-04-08T15:33:59.233Z,16.58
2023-04-08T15:36:26.689Z,16.02
2023-04-08T15:38:53.390Z,17.20
2023-04-08T15:41:20.026Z,16.92
2023-04-08T15:43:46.416Z,15.95
2023-04-08T15:46:12.844Z,15.90
2023-04-08T15:48:39.251Z,15.82
2023-04-08T15:51:05.691Z,16.60
2023-04-08T15:53:32.261Z,17.23
2023-04-08T15:55:58.897Z,17.92
2023-04-08T15:58:25.454Z,16.73
2023-04-08T16:00:52.180Z,16.25
2023-04-08T16:03:18.845Z,15.52
2023-04-08T16:05:45.350Z,16.20
2023-04-08T16:08:11.712Z,15.85
2023-04-08T16:10:38.125Z,15.93
2023-04-08T16:13:04.524Z,18.00
2023-04-08T16:15:31.012Z,22.80
2023-04-08T16:17:57.426Z,21.10
2023-04-08T16:20:23.875Z,20.58
2023-04-08T16:22:50.296Z,18.85
2023-04-08T16:25:16.699Z,18.83
2023-04-08T16:27:43.093Z,17.83
2023-04-08T16:30:09.447Z,18.95
2023-04-08T16:32:35.838Z,19.38
2023-04-08T16:35:02.310Z,19.98
2023-04-08T16:37:28.725Z,22.10
2023-04-08T16:39:55.790Z,23.20
2023-04-08T16:42:22.376Z,26.20
2023-04-08T16:44:49.139Z,26.63
2023-04-08T16:47:15.528Z,27.35
2023-04-08T16:49:41.888Z,25.17
2023-04-08T16:52:10.335Z,22.35
2023-04-08T16:54:36.991Z,19.40
2023-04-08T16:57:03.820Z,21.60
2023-04-08T16:59:30.224Z,17.95
2023-04-08T17:01:57.332Z,16.27
2023-04-08T17:04:23.808Z,18.75
2023-04-08T17:06:50.318Z,20.23
2023-04-08T17:09:16.684Z,20.02
2023-04-08T17:11:43.115Z,20.35
2023-04-08T17:14:09.869Z,19.10
2023-04-08T17:16:36.331Z,19.15
2023-04-08T17:19:02.690Z,17.60
2023-04-08T17:21:29.042Z,17.80
2023-04-08T17:23:56.677Z,17.02
2023-04-08T17:26:23.499Z,16.98
2023-04-08T17:28:49.911Z,15.70
2023-04-08T17:31:16.261Z,15.48
2023-04-08T17:33:42.643Z,15.85
2023-04-08T17:36:09.174Z,15.73
2023-04-08T17:38:39.614Z,16.33
2023-04-08T17:41:07.910Z,16.65
2023-04-08T17:43:34.602Z,16.38
2023-04-08T17:46:01.512Z,16.10
2023-04-08T17:48:28.632Z,16.55
2023-04-08T17:50:55.034Z,16.40
2023-04-08T17:53:21.369Z,16.27
2023-04-08T17:55:47.757Z,18.10
2023-04-08T17:58:14.137Z,18.92
2023-04-08T18:00:40.649Z,19.40
2023-04-08T18:03:07.212Z,18.65
2023-04-08T18:05:33.618Z,19.70
2023-04-08T18:08:00.130Z,21.15
2023-04-08T18:10:26.561Z,19.70
2023-04-08T18:13:03.687Z,20.25
2023-04-08T18:15:34.263Z,19.10
2023-04-08T18:18:00.737Z,19.42
2023-04-08T18:20:27.210Z,19.75
2023-04-08T18:22:53.654Z,20.10
2023-04-08T18:25:22.362Z,18.50
2023-04-08T18:27:48.673Z,19.73
2023-04-08T18:30:15.046Z,20.15
2023-04-08T18:32:41.429Z,20.83
2023-04-08T18:35:07.830Z,20.42
2023-04-08T18:37:34.644Z,20.80
2023-04-08T18:40:02.416Z,21.73
2023-04-08T18:42:28.791Z,20.25
2023-04-08T18:44:55.335Z,20.05
2023-04-08T18:47:24.752Z,21.20
2023-04-08T18:49:51.416Z,20.55
2023-04-08T18:52:17.764Z,20.10
2023-04-08T18:54:44.280Z,21.67
2023-04-08T18:57:10.700Z,20.90
2023-04-08T18:59:37.189Z,21.45
2023-04-08T19:02:03.693Z,21.15
2023-04-08T19:04:30.784Z,20.42
2023-04-08T19:06:57.190Z,20.55
2023-04-08T19:09:23.602Z,21.77
2023-04-08T19:11:50.004Z,20.38
2023-04-08T19:14:16.925Z,20.95
2023-04-08T19:16:43.777Z,21.75
2023-04-08T19:19:10.134Z,21.90
2023-04-08T19:21:37.794Z,21.52
2023-04-08T19:24:06.021Z,22.48
2023-04-08T19:26:32.508Z,20.55
2023-04-08T19:28:58.925Z,23.15
2023-04-08T19:31:25.321Z,23.17
2023-04-08T19:33:51.891Z,21.83
2023-04-08T19:36:18.393Z,23.13
2023-04-08T19:38:44.870Z,22.65
2023-04-08T19:41:11.413Z,25.23
2023-04-08T19:43:37.824Z,24.13
2023-04-08T19:46:04.754Z,23.27
2023-04-08T19:48:32.705Z,24.70
2023-04-08T19:50:59.843Z,24.85
2023-04-08T19:53:26.417Z,26.55
2023-04-08T19:55:53.191Z,26.70
2023-04-08T19:58:19.662Z,27.73
2023-04-08T20:00:46.232Z,26.50
2023-04-08T20:03:13.889Z,28.65
2023-04-08T20:05:40.936Z,27.42
2023-04-08T20:08:07.315Z,29.55
2023-04-08T20:10:35.559Z,28.80
2023-04-08T20:13:02.113Z,28.33
2023-04-08T20:15:28.506Z,28.77
2023-04-08T20:17:54.939Z,28.50
2023-04-08T20:20:21.441Z,28.70
2023-04-08T20:22:47.862Z,27.88
2023-04-08T20:25:14.277Z,28.83
2023-04-08T20:27:41.347Z,27.75
2023-04-08T20:30:07.894Z,27.25
2023-04-08T20:32:34.700Z,26.73
2023-04-08T20:35:01.350Z,26.35
2023-04-08T20:37:28.712Z,27.30
2023-04-08T20:39:55.088Z,26.77
2023-04-08T20:42:21.717Z,28.42
2023-04-08T20:44:48.141Z,27.00
2023-04-08T20:47:14.543Z,26.20
2023-04-08T20:49:42.181Z,27.60
2023-04-08T20:52:08.582Z,26.58
2023-04-08T20:54:34.980Z,26.23
2023-04-08T20:57:01.597Z,26.92
2023-04-08T20:59:28.618Z,25.73
2023-04-08T21:01:55.282Z,26.83
2023-04-08T21:04:24.301Z,24.65
2023-04-08T21:06:51.036Z,26.90
2023-04-08T21:09:17.387Z,25.73
2023-04-08T21:11:43.768Z,24.02
2023-04-08T21:14:10.188Z,24.08
2023-04-08T21:16:36.565Z,25.33
2023-04-08T21:19:04.059Z,25.23
2023-04-08T21:21:31.619Z,25.40
2023-04-08T21:23:58.199Z,25.17
2023-04-08T21:26:24.587Z,24.27
2023-04-08T21:28:51.226Z,24.13
2023-04-08T21:31:17.748Z,24.77
2023-04-08T21:33:44.127Z,24.67
2023-04-08T21:36:10.756Z,24.20
2023-04-08T21:38:37.165Z,25.10
2023-04-08T21:41:03.553Z,25.52
2023-04-08T21:43:29.951Z,24.65
2023-04-08T21:45:56.334Z,24.65
2023-04-08T21:48:23.408Z,25.15
2023-04-08T21:50:49.763Z,24.17
2023-04-08T21:53:16.710Z,23.70
2023-04-08T21:55:43.085Z,24.05
2023-04-08T21:58:12.156Z,23.70
2023-04-08T22:00:39.051Z,24.13
2023-04-08T22:03:06.964Z,22.85
2023-04-08T22:05:33.508Z,24.27
2023-04-08T22:07:59.957Z,24.15
2023-04-08T22:10:26.621Z,23.92
2023-04-08T22:12:53.046Z,24.98
2023-04-08T22:15:19.440Z,24.42
2023-04-08T22:17:46.118Z,24.83
2023-04-08T22:20:12.518Z,24.98
2023-04-08T22:22:38.878Z,24.27
2023-04-08T22:25:05.259Z,24.25
2023-04-08T22:27:31.673Z,23.67
2023-04-08T22:29:58.046Z,23.55
2023-04-08T22:32:24.478Z,24.13
2023-04-08T22:34:51.056Z,24.05
2023-04-08T22:37:17.723Z,23.60
2023-04-08T22:39:44.104Z,22.88
2023-04-08T22:42:10.489Z,23.50
2023-04-08T22:44:36.849Z,22.85
2023-04-08T22:47:03.260Z,23.20
2023-04-08T22:49:29.630Z,23.13
2023-04-08T22:51:56.054Z,23.80
2023-04-08T22:54:22.649Z,23.23
2023-04-08T22:56:49.044Z,23.73
2023-04-08T22:59:15.401Z,22.15
2023-04-08T23:01:42.034Z,24.85
2023-04-08T23:04:11.315Z,23.30
2023-04-08T23:06:37.760Z,23.88
2023-04-08T23:09:04.234Z,23.60
2023-04-08T23:11:30.706Z,23.02
2023-04-08T23:13:57.118Z,23.20
2023-04-08T23:16:23.683Z,23.58
2023-04-08T23:18:50.514Z,23.95
2023-04-08T23:21:17.107Z,22.98
2023-04-08T23:23:43.492Z,24.02
2023-04-08T23:26:09.944Z,23.08
2023-04-08T23:28:36.309Z,22.90
2023-04-08T23:31:02.699Z,23.55
2023-04-08T23:33:29.143Z,25.45
2023-04-08T23:35:55.706Z,24.95
2023-04-08T23:38:22.160Z,25.20
2023-04-08T23:40:48.522Z,26.00
2023-04-08T23:43:15.065Z,24.50
2023-04-08T23:45:41.439Z,24.92
2023-04-08T23:48:10.066Z,24.58
2023-04-08T23:50:36.698Z,26.10
2023-04-08T23:53:03.110Z,24.63
2023-04-08T23:55:29.466Z,25.70
2023-04-08T23:57:56.141Z,25.15
